createdAt,value
2023-11-25T00:00:41.156Z,4.34
2023-11-25T00:01:45.487Z,4.35
2023-11-25T00:02:49.773Z,4.37
2023-11-25T00:03:53.985Z,4.38
2023-11-25T00:05:06.597Z,4.40
2023-11-25T00:06:07.028Z,4.42
2023-11-25T00:07:11.231Z,4.43
2023-11-25T00:08:15.397Z,4.45
2023-11-25T00:09:19.696Z,4.46
2023-11-25T00:10:23.967Z,4.48
2023-11-25T00:11:30.995Z,4.49
2023-11-25T00:12:34.485Z,4.51
2023-11-25T00:13:38.480Z,4.51
2023-11-25T00:14:42.880Z,4.51
2023-11-25T00:15:47.061Z,4.52
2023-11-25T00:16:51.464Z,4.53
2023-11-25T00:17:55.540Z,4.54
2023-11-25T00:18:59.652Z,4.55
2023-11-25T00:20:04.088Z,4.55
2023-11-25T00:21:08.091Z,4.56
2023-11-25T00:22:12.425Z,4.56
2023-11-25T00:23:16.618Z,4.57
2023-11-25T00:24:20.820Z,4.58
2023-11-25T00:25:25.087Z,4.57
2023-11-25T00:26:29.354Z,4.57
2023-11-25T00:27:33.597Z,4.57
2023-11-25T00:28:37.777Z,4.56
2023-11-25T00:29:41.837Z,4.57
2023-11-25T00:30:46.205Z,4.57
2023-11-25T00:31:50.385Z,4.57
2023-11-25T00:32:54.678Z,4.57
2023-11-25T00:33:58.910Z,4.56
2023-11-25T00:35:03.120Z,4.54
2023-11-25T00:36:07.328Z,4.53
2023-11-25T00:37:11.655Z,4.54
2023-11-25T00:38:15.791Z,4.54
2023-11-25T00:39:20.128Z,4.56
2023-11-25T00:40:24.319Z,4.56
2023-11-25T00:41:42.589Z,4.57
2023-11-25T00:42:45.532Z,4.58
2023-11-25T00:43:49.846Z,4.59
2023-11-25T00:44:54.071Z,4.60
2023-11-25T00:45:58.204Z,4.61
2023-11-25T00:47:02.521Z,4.62
2023-11-25T00:48:06.588Z,4.63
2023-11-25T00:49:10.826Z,4.63
2023-11-25T00:50:14.942Z,4.64
2023-11-25T00:51:19.288Z,4.64
2023-11-25T00:52:23.572Z,4.64
2023-11-25T00:53:27.653Z,4.64
2023-11-25T00:54:31.963Z,4.63
2023-11-25T00:55:36.189Z,4.62
2023-11-25T00:56:40.326Z,4.62
2023-11-25T00:57:44.481Z,4.62
2023-11-25T00:58:48.795Z,4.62
2023-11-25T00:59:52.854Z,4.61
2023-11-25T01:00:56.998Z,4.60
2023-11-25T01:02:01.357Z,4.59
2023-11-25T01:03:05.635Z,4.59
2023-11-25T01:04:10.891Z,4.59
2023-11-25T01:05:28.737Z,4.59
2023-11-25T01:06:31.594Z,4.60
2023-11-25T01:07:35.989Z,4.62
2023-11-25T01:08:40.124Z,4.63
2023-11-25T01:09:44.376Z,4.64
2023-11-25T01:10:48.537Z,4.63
2023-11-25T01:11:52.761Z,4.64
2023-11-25T01:12:56.994Z,4.64
2023-11-25T01:14:01.154Z,4.64
2023-11-25T01:15:05.648Z,4.65
2023-11-25T01:16:09.820Z,4.65
2023-11-25T01:17:14.024Z,4.66
2023-11-25T01:18:21.019Z,4.66
2023-11-25T01:19:24.381Z,4.67
2023-11-25T01:20:28.587Z,4.67
2023-11-25T01:21:32.858Z,4.68
2023-11-25T01:22:37.220Z,4.69
2023-11-25T01:23:41.229Z,4.70
2023-11-25T01:24:45.576Z,4.71
2023-11-25T01:25:49.753Z,4.72
2023-11-25T01:26:53.967Z,4.73
2023-11-25T01:27:58.431Z,4.75
2023-11-25T01:29:02.411Z,4.76
2023-11-25T01:30:06.786Z,4.78
2023-11-25T01:31:10.943Z,4.78
2023-11-25T01:32:15.208Z,4.79
2023-11-25T01:33:19.368Z,4.79
2023-11-25T01:34:23.756Z,4.80
2023-11-25T01:35:27.941Z,4.80
2023-11-25T01:36:32.283Z,4.81
2023-11-25T01:37:36.529Z,4.80
2023-11-25T01:38:40.594Z,4.81
2023-11-25T01:39:44.818Z,4.81
2023-11-25T01:40:49.192Z,4.81
2023-11-25T01:41:53.511Z,4.82
2023-11-25T01:42:57.708Z,4.82
2023-11-25T01:45:28.736Z,4.83
2023-11-25T01:46:32.933Z,4.84
2023-11-25T01:47:36.985Z,4.84
2023-11-25T01:48:41.250Z,4.85
2023-11-25T01:49:45.443Z,4.84
2023-11-25T01:50:49.785Z,4.84
2023-11-25T01:51:53.891Z,4.84
2023-11-25T01:52:58.115Z,4.85
2023-11-25T01:54:02.437Z,4.86
2023-11-25T01:55:06.645Z,4.87
2023-11-25T01:56:10.935Z,4.86
2023-11-25T01:57:15.109Z,4.87
2023-11-25T01:58:19.400Z,4.87
2023-11-25T01:59:23.457Z,4.88
2023-11-25T02:00:27.760Z,4.90
2023-11-25T02:01:32.185Z,4.91
2023-11-25T02:02:36.487Z,4.92
2023-11-25T02:03:40.573Z,4.93
2023-11-25T02:04:50.868Z,4.95
2023-11-25T02:05:53.512Z,4.96
2023-11-25T02:06:57.694Z,4.98
2023-11-25T02:08:01.925Z,4.99
2023-11-25T02:09:06.186Z,5.00
2023-11-25T02:10:10.332Z,5.01
2023-11-25T02:11:14.806Z,5.02
2023-11-25T02:12:18.824Z,5.02
2023-11-25T02:13:24.818Z,5.03
2023-11-25T02:14:27.302Z,5.03
2023-11-25T02:15:31.493Z,5.03
2023-11-25T02:16:35.926Z,5.03
2023-11-25T02:17:40.075Z,5.03
2023-11-25T02:18:44.241Z,5.02
2023-11-25T02:19:48.473Z,5.01
2023-11-25T02:20:53.909Z,5.00
2023-11-25T02:21:57.309Z,5.00
2023-11-25T02:23:01.161Z,4.99
2023-11-25T02:24:05.514Z,4.99
2023-11-25T02:25:09.697Z,4.98
2023-11-25T02:26:13.818Z,4.98
2023-11-25T02:27:17.997Z,4.98
2023-11-25T02:28:22.577Z,4.98
2023-11-25T02:29:26.597Z,4.98
2023-11-25T02:30:30.783Z,4.98
2023-11-25T02:31:35.063Z,4.98
2023-11-25T02:32:39.241Z,4.98
2023-11-25T02:33:43.456Z,4.97
2023-11-25T02:34:47.807Z,4.96
2023-11-25T02:35:51.984Z,4.96
2023-11-25T02:36:56.196Z,4.95
2023-11-25T02:38:00.458Z,4.94
2023-11-25T02:39:04.738Z,4.93
2023-11-25T02:40:09.025Z,4.93
2023-11-25T02:41:13.150Z,4.93
2023-11-25T02:42:17.498Z,4.92
2023-11-25T02:43:21.732Z,4.91
2023-11-25T02:44:25.993Z,4.89
2023-11-25T02:45:30.309Z,4.88
2023-11-25T02:46:34.621Z,4.87
2023-11-25T02:47:38.792Z,4.87
2023-11-25T02:48:42.966Z,4.86
2023-11-25T02:49:47.242Z,4.84
2023-11-25T02:50:51.488Z,4.84
2023-11-25T02:51:55.761Z,4.82
2023-11-25T02:52:59.963Z,4.82
2023-11-25T02:54:04.224Z,4.82
2023-11-25T02:55:08.571Z,4.82
2023-11-25T02:56:12.689Z,4.82
2023-11-25T02:57:16.878Z,4.81
2023-11-25T02:58:21.198Z,4.81
2023-11-25T02:59:25.251Z,4.81
2023-11-25T03:00:29.663Z,4.81
2023-11-25T03:01:33.778Z,4.82
2023-11-25T03:02:38.212Z,4.82
2023-11-25T03:03:42.386Z,4.82
2023-11-25T03:04:46.620Z,4.82
2023-11-25T03:05:50.805Z,4.83
2023-11-25T03:06:54.913Z,4.83
2023-11-25T03:07:59.158Z,4.82
2023-11-25T03:09:03.456Z,4.82
2023-11-25T03:10:07.606Z,4.83
2023-11-25T03:11:11.854Z,4.83
2023-11-25T03:12:15.970Z,4.83
2023-11-25T03:13:20.388Z,4.84
2023-11-25T03:14:24.611Z,4.85
2023-11-25T03:15:28.967Z,4.86
2023-11-25T03:16:33.188Z,4.87
2023-11-25T03:17:37.326Z,4.88
2023-11-25T03:18:41.643Z,4.89
2023-11-25T03:19:45.838Z,4.90
2023-11-25T03:20:50.018Z,4.89
2023-11-25T03:21:54.330Z,4.88
2023-11-25T03:22:58.561Z,4.86
2023-11-25T03:24:02.821Z,4.82
2023-11-25T03:25:07.123Z,4.78
2023-11-25T03:26:11.158Z,4.75
2023-11-25T03:27:15.471Z,4.72
2023-11-25T03:28:20.658Z,4.69
2023-11-25T03:29:24.388Z,4.67
2023-11-25T03:30:28.621Z,4.67
2023-11-25T03:31:32.896Z,4.67
2023-11-25T03:32:37.201Z,4.67
2023-11-25T03:33:41.251Z,4.68
2023-11-25T03:34:45.561Z,4.66
2023-11-25T03:35:49.789Z,4.66
2023-11-25T03:36:53.963Z,4.66
2023-11-25T03:37:58.082Z,4.64
2023-11-25T03:39:02.317Z,4.64
2023-11-25T03:40:06.634Z,4.63
2023-11-25T03:41:10.823Z,4.63
2023-11-25T03:42:15.131Z,4.63
2023-11-25T03:43:19.353Z,4.64
2023-11-25T03:44:23.629Z,4.65
2023-11-25T03:45:27.857Z,4.66
2023-11-25T03:46:32.166Z,4.67
2023-11-25T03:47:36.398Z,4.69
2023-11-25T03:48:40.604Z,4.70
2023-11-25T03:49:44.808Z,4.72
2023-11-25T03:50:49.006Z,4.73
2023-11-25T03:51:53.316Z,4.73
2023-11-25T03:52:57.504Z,4.73
2023-11-25T03:54:01.785Z,4.73
2023-11-25T03:55:06.042Z,4.72
2023-11-25T03:56:10.223Z,4.71
2023-11-25T03:57:14.490Z,4.71
2023-11-25T03:58:18.765Z,4.71
2023-11-25T03:59:22.892Z,4.71
2023-11-25T04:00:27.137Z,4.72
2023-11-25T04:01:31.456Z,4.73
2023-11-25T04:02:35.678Z,4.74
2023-11-25T04:03:39.771Z,4.75
2023-11-25T04:04:44.065Z,4.76
2023-11-25T04:05:48.298Z,4.77
2023-11-25T04:06:52.702Z,4.77
2023-11-25T04:07:56.777Z,4.78
2023-11-25T04:09:01.113Z,4.79
2023-11-25T04:10:05.392Z,4.79
2023-11-25T04:11:09.740Z,4.80
2023-11-25T04:12:13.762Z,4.81
2023-11-25T04:13:18.133Z,4.81
2023-11-25T04:14:22.346Z,4.81
2023-11-25T04:15:26.634Z,4.80
2023-11-25T04:16:30.987Z,4.78
2023-11-25T04:17:35.052Z,4.77
2023-11-25T04:18:39.245Z,4.75
2023-11-25T04:19:43.584Z,4.73
2023-11-25T04:20:47.782Z,4.71
2023-11-25T04:21:51.903Z,4.70
2023-11-25T04:22:56.279Z,4.68
2023-11-25T04:24:00.416Z,4.66
2023-11-25T04:25:04.720Z,4.63
2023-11-25T04:26:09.032Z,4.61
2023-11-25T04:27:13.128Z,4.59
2023-11-25T04:28:17.488Z,4.58
2023-11-25T04:29:21.635Z,4.57
2023-11-25T04:30:25.960Z,4.56
2023-11-25T04:31:30.405Z,4.55
2023-11-25T04:32:34.645Z,4.53
2023-11-25T04:33:38.725Z,4.51
2023-11-25T04:34:43.048Z,4.49
2023-11-25T04:35:47.090Z,4.46
2023-11-25T04:36:51.359Z,4.43
2023-11-25T04:37:55.550Z,4.41
2023-11-25T04:38:59.825Z,4.39
2023-11-25T04:40:04.021Z,4.37
2023-11-25T04:41:08.424Z,4.34
2023-11-25T04:42:12.583Z,4.31
2023-11-25T04:43:16.814Z,4.28
2023-11-25T04:44:21.032Z,4.25
2023-11-25T04:45:25.226Z,4.23
2023-11-25T04:46:29.458Z,4.23
2023-11-25T04:47:33.721Z,4.23
2023-11-25T04:48:37.827Z,4.24
2023-11-25T04:49:42.129Z,4.24
2023-11-25T04:50:46.459Z,4.25
2023-11-25T04:51:51.383Z,4.26
2023-11-25T04:52:55.138Z,4.26
2023-11-25T04:53:59.345Z,4.26
2023-11-25T04:55:03.564Z,4.27
2023-11-25T04:56:07.846Z,4.27
2023-11-25T04:57:12.185Z,4.27
2023-11-25T04:58:19.310Z,4.27
2023-11-25T04:59:22.586Z,4.27
2023-11-25T05:00:26.954Z,4.27
2023-11-25T05:01:31.137Z,4.28
2023-11-25T05:02:35.190Z,4.28
2023-11-25T05:03:39.362Z,4.28
2023-11-25T05:04:43.585Z,4.28
2023-11-25T05:05:47.825Z,4.27
2023-11-25T05:06:52.082Z,4.27
2023-11-25T05:07:56.270Z,4.27
2023-11-25T05:09:00.473Z,4.26
2023-11-25T05:10:04.669Z,4.24
2023-11-25T05:11:08.914Z,4.21
2023-11-25T05:12:13.067Z,4.16
2023-11-25T05:13:17.460Z,4.12
2023-11-25T05:14:21.512Z,4.08
2023-11-25T05:15:25.784Z,4.03
2023-11-25T05:16:29.877Z,4.01
2023-11-25T05:17:34.264Z,4.00
2023-11-25T05:18:38.381Z,3.99
2023-11-25T05:19:42.747Z,4.00
2023-11-25T05:20:46.914Z,4.02
2023-11-25T05:21:51.186Z,4.05
2023-11-25T05:22:55.650Z,4.07
2023-11-25T05:23:59.698Z,4.09
2023-11-25T05:25:03.893Z,4.11
2023-11-25T05:26:08.178Z,4.14
2023-11-25T05:27:12.226Z,4.14
2023-11-25T05:28:16.540Z,4.15
2023-11-25T05:29:20.762Z,4.14
2023-11-25T05:30:24.861Z,4.14
2023-11-25T05:31:29.269Z,4.15
2023-11-25T05:32:33.452Z,4.16
2023-11-25T05:33:37.491Z,4.14
2023-11-25T05:34:41.882Z,4.11
2023-11-25T05:35:45.961Z,4.10
2023-11-25T05:36:50.213Z,4.09
2023-11-25T05:37:54.457Z,4.08
2023-11-25T05:38:58.555Z,4.08
2023-11-25T05:40:02.846Z,4.05
2023-11-25T05:41:13.156Z,4.01
2023-11-25T05:42:15.802Z,3.95
2023-11-25T05:43:20.151Z,3.92
2023-11-25T05:44:27.183Z,3.90
2023-11-25T05:45:30.426Z,3.91
2023-11-25T05:46:34.635Z,3.93
2023-11-25T05:47:38.790Z,3.95
2023-11-25T05:48:43.105Z,3.96
2023-11-25T05:49:47.323Z,3.96
2023-11-25T05:50:51.544Z,3.94
2023-11-25T05:51:58.325Z,3.93
2023-11-25T05:52:59.933Z,3.92
2023-11-25T05:54:04.204Z,3.92
2023-11-25T05:55:08.243Z,3.92
2023-11-25T05:56:12.488Z,3.93
2023-11-25T05:57:16.682Z,3.95
2023-11-25T05:58:20.921Z,3.97
2023-11-25T05:59:25.129Z,3.98
2023-11-25T06:00:29.320Z,3.97
2023-11-25T06:01:33.518Z,3.94
2023-11-25T06:02:37.736Z,3.91
2023-11-25T06:03:41.963Z,3.87
2023-11-25T06:04:46.281Z,3.87
2023-11-25T06:05:50.412Z,3.86
2023-11-25T06:06:54.722Z,3.87
2023-11-25T06:07:58.929Z,3.89
2023-11-25T06:09:03.126Z,3.88
2023-11-25T06:10:07.531Z,3.87
2023-11-25T06:11:11.791Z,3.85
2023-11-25T06:12:15.946Z,3.85
2023-11-25T06:13:20.314Z,3.84
2023-11-25T06:14:24.501Z,3.85
2023-11-25T06:15:28.602Z,3.84
2023-11-25T06:16:35.242Z,3.82
2023-11-25T06:17:37.102Z,3.78
2023-11-25T06:18:41.415Z,3.75
2023-11-25T06:19:45.590Z,3.73
2023-11-25T06:20:49.688Z,3.73
2023-11-25T06:21:54.030Z,3.74
2023-11-25T06:22:58.289Z,3.76
2023-11-25T06:24:02.484Z,3.75
2023-11-25T06:25:06.815Z,3.74
2023-11-25T06:26:11.076Z,3.71
2023-11-25T06:27:15.324Z,3.69
2023-11-25T06:28:19.747Z,3.69
2023-11-25T06:29:23.781Z,3.68
2023-11-25T06:30:27.959Z,3.68
2023-11-25T06:31:32.209Z,3.68
2023-11-25T06:32:36.424Z,3.67
2023-11-25T06:33:41.563Z,3.67
2023-11-25T06:34:45.470Z,3.67
2023-11-25T06:35:49.813Z,3.68
2023-11-25T06:36:54.132Z,3.69
2023-11-25T06:37:58.378Z,3.70
2023-11-25T06:39:02.627Z,3.71
2023-11-25T06:40:06.815Z,3.71
2023-11-25T06:41:11.183Z,3.71
2023-11-25T06:42:16.381Z,3.73
2023-11-25T06:44:47.194Z,3.74
2023-11-25T06:45:51.321Z,3.76
2023-11-25T06:46:56.602Z,3.78
2023-11-25T06:48:00.423Z,3.79
2023-11-25T06:49:04.475Z,3.82
2023-11-25T06:50:08.662Z,3.85
2023-11-25T06:51:12.877Z,3.88
2023-11-25T06:52:17.298Z,3.89
2023-11-25T06:53:21.378Z,3.91
2023-11-25T06:54:26.557Z,3.92
2023-11-25T06:55:30.525Z,3.94
2023-11-25T06:56:35.794Z,3.96
2023-11-25T06:57:39.651Z,3.98
2023-11-25T06:58:43.892Z,3.96
2023-11-25T06:59:48.051Z,3.93
2023-11-25T07:00:52.151Z,3.90
2023-11-25T07:01:56.604Z,3.89
2023-11-25T07:03:00.689Z,3.89
2023-11-25T07:04:04.828Z,3.91
2023-11-25T07:05:08.892Z,3.93
2023-11-25T07:06:13.223Z,3.94
2023-11-25T07:07:17.356Z,3.95
2023-11-25T07:08:21.558Z,3.97
2023-11-25T07:09:25.817Z,3.99
2023-11-25T07:10:29.998Z,4.01
2023-11-25T07:11:34.179Z,4.02
2023-11-25T07:12:38.401Z,4.03
2023-11-25T07:13:42.693Z,4.04
2023-11-25T07:14:46.781Z,4.05
2023-11-25T07:15:50.990Z,4.06
2023-11-25T07:16:55.251Z,4.06
2023-11-25T07:17:59.535Z,4.06
2023-11-25T07:19:03.506Z,4.06
2023-11-25T07:20:07.819Z,4.06
2023-11-25T07:21:12.030Z,4.06
2023-11-25T07:22:16.306Z,4.06
2023-11-25T07:23:20.443Z,4.06
2023-11-25T07:24:25.525Z,4.06
2023-11-25T07:25:29.400Z,4.07
2023-11-25T07:26:33.559Z,4.08
2023-11-25T07:27:37.647Z,4.08
2023-11-25T07:28:41.845Z,4.08
2023-11-25T07:29:45.992Z,4.08
2023-11-25T07:30:50.204Z,4.08
2023-11-25T07:31:54.368Z,4.08
2023-11-25T07:32:58.550Z,4.08
2023-11-25T07:34:02.942Z,4.09
2023-11-25T07:35:07.165Z,4.09
2023-11-25T07:36:11.351Z,4.09
2023-11-25T07:37:15.660Z,4.10
2023-11-25T07:38:19.910Z,4.11
2023-11-25T07:39:24.183Z,4.11
2023-11-25T07:40:28.365Z,4.12
2023-11-25T07:41:32.546Z,4.12
2023-11-25T07:42:36.853Z,4.12
2023-11-25T07:43:40.985Z,4.13
2023-11-25T07:44:45.190Z,4.14
2023-11-25T07:45:49.664Z,4.15
2023-11-25T07:46:54.004Z,4.15
2023-11-25T07:47:58.192Z,4.14
2023-11-25T07:49:02.424Z,4.11
2023-11-25T07:50:07.656Z,4.09
2023-11-25T07:51:11.194Z,4.07
2023-11-25T07:52:15.660Z,4.07
2023-11-25T07:53:19.731Z,4.07
2023-11-25T07:54:24.975Z,4.05
2023-11-25T07:55:29.763Z,4.04
2023-11-25T07:56:33.482Z,4.04
2023-11-25T07:57:37.694Z,4.05
2023-11-25T07:58:42.023Z,4.07
2023-11-25T07:59:46.162Z,4.09
2023-11-25T08:00:50.461Z,4.11
2023-11-25T08:01:54.723Z,4.12
2023-11-25T08:02:58.987Z,4.13
2023-11-25T08:04:03.205Z,4.13
2023-11-25T08:05:21.397Z,4.12
2023-11-25T08:06:24.669Z,4.10
2023-11-25T08:07:28.523Z,4.10
2023-11-25T08:08:32.753Z,4.11
2023-11-25T08:09:36.911Z,4.13
2023-11-25T08:10:41.318Z,4.16
2023-11-25T08:11:45.361Z,4.19
2023-11-25T08:12:49.614Z,4.21
2023-11-25T08:13:53.797Z,4.23
2023-11-25T08:14:57.911Z,4.25
2023-11-25T08:16:02.189Z,4.26
2023-11-25T08:17:06.547Z,4.28
2023-11-25T08:18:10.853Z,4.30
2023-11-25T08:19:14.895Z,4.31
2023-11-25T08:20:19.318Z,4.32
2023-11-25T08:21:23.469Z,4.33
2023-11-25T08:22:27.722Z,4.34
2023-11-25T08:23:31.982Z,4.35
2023-11-25T08:24:36.224Z,4.36
2023-11-25T08:25:40.293Z,4.37
2023-11-25T08:26:44.544Z,4.38
2023-11-25T08:27:48.653Z,4.38
2023-11-25T08:28:52.931Z,4.38
2023-11-25T08:29:57.068Z,4.38
2023-11-25T08:31:01.195Z,4.37
2023-11-25T08:32:05.726Z,4.37
2023-11-25T08:33:09.708Z,4.37
2023-11-25T08:34:13.937Z,4.37
2023-11-25T08:35:18.246Z,4.37
2023-11-25T08:36:22.372Z,4.37
2023-11-25T08:37:26.709Z,4.37
2023-11-25T08:38:30.802Z,4.35
2023-11-25T08:39:35.050Z,4.33
2023-11-25T08:40:41.278Z,4.32
2023-11-25T08:41:43.375Z,4.29
2023-11-25T08:42:47.740Z,4.25
2023-11-25T08:43:51.948Z,4.24
2023-11-25T08:45:10.314Z,4.26
2023-11-25T08:46:12.976Z,4.29
2023-11-25T08:47:17.000Z,4.33
2023-11-25T08:48:21.180Z,4.36
2023-11-25T08:49:25.534Z,4.39
2023-11-25T08:50:29.646Z,4.42
2023-11-25T08:51:33.799Z,4.45
2023-11-25T08:52:37.961Z,4.47
2023-11-25T08:53:42.141Z,4.49
2023-11-25T08:54:46.354Z,4.52
2023-11-25T08:55:50.608Z,4.54
2023-11-25T08:56:54.858Z,4.56
2023-11-25T08:57:59.011Z,4.58
2023-11-25T08:59:06.719Z,4.59
2023-11-25T09:00:07.563Z,4.61
2023-11-25T09:01:11.828Z,4.62
2023-11-25T09:02:16.205Z,4.63
2023-11-25T09:03:23.551Z,4.64
2023-11-25T09:04:26.976Z,4.66
2023-11-25T09:05:30.870Z,4.67
2023-11-25T09:06:34.997Z,4.68
2023-11-25T09:07:39.449Z,4.70
2023-11-25T09:08:43.484Z,4.71
2023-11-25T09:09:47.853Z,4.71
2023-11-25T09:10:52.129Z,4.71
2023-11-25T09:11:56.423Z,4.70
2023-11-25T09:13:00.641Z,4.69
2023-11-25T09:14:04.845Z,4.67
2023-11-25T09:15:09.265Z,4.66
2023-11-25T09:16:13.307Z,4.64
2023-11-25T09:17:17.609Z,4.61
2023-11-25T09:18:21.847Z,4.60
2023-11-25T09:19:26.188Z,4.59
2023-11-25T09:20:30.347Z,4.59
2023-11-25T09:21:34.528Z,4.59
2023-11-25T09:22:38.837Z,4.61
2023-11-25T09:23:42.948Z,4.62
2023-11-25T09:24:47.250Z,4.63
2023-11-25T09:25:51.562Z,4.63
2023-11-25T09:26:55.853Z,4.63
2023-11-25T09:27:59.977Z,4.64
2023-11-25T09:29:04.351Z,4.65
2023-11-25T09:30:08.337Z,4.65
2023-11-25T09:31:12.629Z,4.66
2023-11-25T09:32:16.881Z,4.67
2023-11-25T09:33:21.170Z,4.68
2023-11-25T09:34:25.386Z,4.70
2023-11-25T09:35:29.510Z,4.73
2023-11-25T09:36:33.852Z,4.76
2023-11-25T09:37:38.051Z,4.79
2023-11-25T09:38:42.317Z,4.82
2023-11-25T09:39:46.559Z,4.85
2023-11-25T09:40:50.687Z,4.88
2023-11-25T09:41:54.937Z,4.92
2023-11-25T09:42:59.134Z,4.97
2023-11-25T09:44:03.404Z,5.01
2023-11-25T09:45:07.539Z,5.04
2023-11-25T09:46:11.762Z,5.08
2023-11-25T09:47:15.973Z,5.13
2023-11-25T09:48:20.217Z,5.16
2023-11-25T09:49:24.444Z,5.20
2023-11-25T09:50:28.757Z,5.23
2023-11-25T09:51:32.938Z,5.25
2023-11-25T09:52:37.100Z,5.27
2023-11-25T09:53:41.432Z,5.30
2023-11-25T09:54:45.682Z,5.34
2023-11-25T09:55:49.876Z,5.37
2023-11-25T09:56:54.013Z,5.42
2023-11-25T09:57:59.237Z,5.45
2023-11-25T09:59:03.075Z,5.45
2023-11-25T10:00:07.235Z,5.43
2023-11-25T10:01:11.569Z,5.45
2023-11-25T10:02:15.841Z,5.44
2023-11-25T10:03:20.051Z,5.43
2023-11-25T10:04:24.139Z,5.42
2023-11-25T10:05:29.749Z,5.40
2023-11-25T10:06:32.492Z,5.38
2023-11-25T10:07:36.696Z,5.37
2023-11-25T10:08:40.940Z,5.36
2023-11-25T10:09:48.110Z,5.34
2023-11-25T10:10:51.470Z,5.34
2023-11-25T10:11:55.639Z,5.33
2023-11-25T10:12:59.792Z,5.33
2023-11-25T10:14:03.988Z,5.30
2023-11-25T10:15:08.312Z,5.27
2023-11-25T10:16:12.604Z,5.23
2023-11-25T10:17:16.705Z,5.21
2023-11-25T10:18:21.025Z,5.18
2023-11-25T10:19:25.217Z,5.17
2023-11-25T10:20:29.425Z,5.15
2023-11-25T10:21:33.554Z,5.14
2023-11-25T10:22:37.725Z,5.10
2023-11-25T10:23:42.019Z,5.07
2023-11-25T10:25:00.368Z,5.03
2023-11-25T10:26:03.376Z,4.98
2023-11-25T10:27:07.371Z,4.96
2023-11-25T10:28:11.558Z,4.94
2023-11-25T10:29:15.772Z,4.93
2023-11-25T10:30:19.905Z,4.93
2023-11-25T10:31:24.142Z,4.94
2023-11-25T10:32:28.332Z,4.95
2023-11-25T10:33:32.506Z,4.98
2023-11-25T10:34:36.808Z,5.00
2023-11-25T10:35:40.999Z,5.02
2023-11-25T10:36:45.170Z,5.04
2023-11-25T10:37:49.372Z,5.06
2023-11-25T10:38:53.707Z,5.06
2023-11-25T10:39:57.847Z,5.06
2023-11-25T10:41:02.317Z,5.08
2023-11-25T10:42:06.460Z,5.10
2023-11-25T10:43:10.627Z,5.13
2023-11-25T10:44:14.818Z,5.15
2023-11-25T10:45:19.135Z,5.18
2023-11-25T10:46:23.507Z,5.21
2023-11-25T10:47:27.548Z,5.24
2023-11-25T10:48:31.874Z,5.28
2023-11-25T10:49:36.195Z,5.33
2023-11-25T10:50:40.162Z,5.38
2023-11-25T10:51:44.404Z,5.43
2023-11-25T10:52:48.562Z,5.49
2023-11-25T10:53:52.999Z,5.53
2023-11-25T10:54:57.160Z,5.57
2023-11-25T10:56:01.835Z,5.61
2023-11-25T10:57:05.651Z,5.65
2023-11-25T10:58:09.817Z,5.69
2023-11-25T10:59:14.167Z,5.69
2023-11-25T11:00:18.280Z,5.68
2023-11-25T11:01:22.534Z,5.66
2023-11-25T11:02:26.817Z,5.63
2023-11-25T11:03:30.882Z,5.60
2023-11-25T11:04:35.224Z,5.59
2023-11-25T11:05:39.289Z,5.58
2023-11-25T11:06:43.584Z,5.58
2023-11-25T11:07:47.910Z,5.58
2023-11-25T11:08:52.119Z,5.58
2023-11-25T11:09:56.322Z,5.56
2023-11-25T11:11:00.653Z,5.54
2023-11-25T11:12:04.945Z,5.51
2023-11-25T11:13:12.046Z,5.50
2023-11-25T11:14:15.503Z,5.48
2023-11-25T11:15:19.556Z,5.47
2023-11-25T11:16:23.893Z,5.47
2023-11-25T11:17:27.991Z,5.47
2023-11-25T11:18:32.459Z,5.47
2023-11-25T11:19:36.629Z,5.45
2023-11-25T11:20:42.780Z,5.45
2023-11-25T11:21:45.060Z,5.47
2023-11-25T11:22:49.284Z,5.49
2023-11-25T11:23:53.494Z,5.52
2023-11-25T11:24:57.833Z,5.55
2023-11-25T11:26:01.985Z,5.57
2023-11-25T11:27:06.079Z,5.59
2023-11-25T11:28:10.372Z,5.62
2023-11-25T11:29:14.630Z,5.65
2023-11-25T11:30:18.870Z,5.67
2023-11-25T11:31:23.083Z,5.68
2023-11-25T11:32:27.327Z,5.71
2023-11-25T11:33:31.496Z,5.71
2023-11-25T11:34:35.789Z,5.70
2023-11-25T11:35:39.931Z,5.70
2023-11-25T11:36:44.180Z,5.70
2023-11-25T11:37:48.475Z,5.69
2023-11-25T11:38:52.539Z,5.69
2023-11-25T11:39:56.793Z,5.68
2023-11-25T11:41:01.042Z,5.64
2023-11-25T11:42:05.199Z,5.62
2023-11-25T11:43:09.513Z,5.62
2023-11-25T11:44:13.902Z,5.62
2023-11-25T11:45:19.089Z,5.62
2023-11-25T11:46:22.803Z,5.60
2023-11-25T11:47:27.025Z,5.60
2023-11-25T11:48:31.238Z,5.61
2023-11-25T11:49:35.504Z,5.62
2023-11-25T11:50:39.791Z,5.64
2023-11-25T11:51:44.015Z,5.66
2023-11-25T11:52:48.225Z,5.66
2023-11-25T11:53:52.356Z,5.68
2023-11-25T11:54:56.732Z,5.69
2023-11-25T11:56:00.983Z,5.70
2023-11-25T11:57:05.134Z,5.70
2023-11-25T11:58:09.463Z,5.71
2023-11-25T11:59:13.544Z,5.70
2023-11-25T12:00:17.730Z,5.70
2023-11-25T12:01:22.025Z,5.71
2023-11-25T12:02:26.346Z,5.72
2023-11-25T12:03:30.577Z,5.74
2023-11-25T12:04:34.759Z,5.74
2023-11-25T12:05:38.935Z,5.75
2023-11-25T12:06:43.202Z,5.76
2023-11-25T12:07:47.320Z,5.78
2023-11-25T12:08:51.493Z,5.78
2023-11-25T12:09:55.871Z,5.80
2023-11-25T12:11:00.139Z,5.81
2023-11-25T12:12:04.273Z,5.83
2023-11-25T12:13:08.491Z,5.86
2023-11-25T12:14:12.665Z,5.88
2023-11-25T12:15:17.002Z,5.90
2023-11-25T12:16:21.177Z,5.92
2023-11-25T12:17:25.750Z,5.92
2023-11-25T12:18:29.848Z,5.93
2023-11-25T12:19:48.209Z,5.97
2023-11-25T12:20:51.233Z,6.00
2023-11-25T12:21:55.468Z,6.03
2023-11-25T12:22:59.610Z,6.06
2023-11-25T12:24:03.879Z,6.09
2023-11-25T12:25:08.179Z,6.12
2023-11-25T12:26:12.460Z,6.15
2023-11-25T12:27:16.753Z,6.19
2023-11-25T12:28:21.009Z,6.22
2023-11-25T12:29:25.248Z,6.24
2023-11-25T12:30:29.588Z,6.26
2023-11-25T12:31:33.793Z,6.29
2023-11-25T12:32:38.201Z,6.31
2023-11-25T12:33:42.327Z,6.33
2023-11-25T12:34:46.874Z,6.36
2023-11-25T12:35:50.841Z,6.40
2023-11-25T12:36:55.002Z,6.45
2023-11-25T12:38:07.994Z,6.47
2023-11-25T12:39:03.624Z,6.50
2023-11-25T12:40:07.902Z,6.55
2023-11-25T12:41:12.317Z,6.58
2023-11-25T12:42:16.332Z,6.62
2023-11-25T12:43:20.674Z,6.65
2023-11-25T12:44:24.970Z,6.72
2023-11-25T12:45:29.246Z,6.77
2023-11-25T12:46:33.698Z,6.83
2023-11-25T12:47:37.887Z,6.87
2023-11-25T12:48:42.053Z,6.89
2023-11-25T12:49:46.535Z,6.91
2023-11-25T12:50:50.619Z,6.96
2023-11-25T12:51:54.883Z,7.00
2023-11-25T12:52:59.081Z,7.03
2023-11-25T12:54:03.403Z,7.05
2023-11-25T12:55:07.701Z,7.08
2023-11-25T12:56:12.001Z,7.08
2023-11-25T12:57:16.361Z,7.10
2023-11-25T12:58:20.560Z,7.15
2023-11-25T12:59:24.875Z,7.19
2023-11-25T13:00:29.114Z,7.23
2023-11-25T13:01:33.666Z,7.25
2023-11-25T13:02:37.733Z,7.21
2023-11-25T13:03:42.237Z,7.19
2023-11-25T13:04:46.254Z,7.17
2023-11-25T13:05:50.474Z,7.18
2023-11-25T13:06:54.788Z,7.14
2023-11-25T13:07:59.155Z,7.11
2023-11-25T13:09:03.272Z,7.02
2023-11-25T13:10:07.902Z,6.94
2023-11-25T13:11:12.022Z,6.88
2023-11-25T13:12:16.146Z,6.81
2023-11-25T13:13:20.391Z,6.73
2023-11-25T13:14:24.783Z,6.69
2023-11-25T13:15:28.951Z,6.62
2023-11-25T13:16:33.281Z,6.52
2023-11-25T13:17:37.502Z,6.44
2023-11-25T13:18:41.691Z,6.36
2023-11-25T13:19:45.882Z,6.28
2023-11-25T13:20:50.149Z,6.21
2023-11-25T13:21:54.372Z,6.12
2023-11-25T13:22:58.571Z,6.05
2023-11-25T13:24:02.727Z,5.98
2023-11-25T13:25:07.029Z,5.93
2023-11-25T13:26:11.247Z,5.88
2023-11-25T13:27:15.568Z,5.82
2023-11-25T13:28:19.788Z,5.74
2023-11-25T13:29:24.116Z,5.70
2023-11-25T13:30:28.348Z,5.67
2023-11-25T13:31:32.622Z,5.62
2023-11-25T13:32:36.842Z,5.59
2023-11-25T13:33:40.913Z,5.57
2023-11-25T13:34:45.335Z,5.54
2023-11-25T13:35:49.327Z,5.51
2023-11-25T13:36:53.734Z,5.48
2023-11-25T13:37:57.930Z,5.46
2023-11-25T13:39:02.135Z,5.43
2023-11-25T13:40:06.297Z,5.41
2023-11-25T13:41:10.606Z,5.40
2023-11-25T13:42:14.809Z,5.40
2023-11-25T13:43:19.026Z,5.40
2023-11-25T13:44:23.272Z,5.37
2023-11-25T13:45:27.598Z,5.35
2023-11-25T13:46:31.904Z,5.33
2023-11-25T13:47:36.065Z,5.31
2023-11-25T13:48:40.261Z,5.30
2023-11-25T13:49:45.435Z,5.30
2023-11-25T13:50:49.194Z,5.29
2023-11-25T13:51:53.508Z,5.29
2023-11-25T13:52:57.595Z,5.28
2023-11-25T13:54:01.855Z,5.27
2023-11-25T13:55:06.066Z,5.26
2023-11-25T13:56:10.441Z,5.25
2023-11-25T13:57:14.781Z,5.24
2023-11-25T13:58:18.995Z,5.22
2023-11-25T13:59:23.052Z,5.21
2023-11-25T14:00:28.009Z,5.17
2023-11-25T14:02:58.874Z,5.12
2023-11-25T14:04:02.858Z,5.11
2023-11-25T14:05:07.073Z,5.10
2023-11-25T14:06:11.216Z,5.10
2023-11-25T14:07:15.557Z,5.10
2023-11-25T14:08:19.876Z,5.10
2023-11-25T14:09:23.940Z,5.09
2023-11-25T14:10:28.196Z,5.09
2023-11-25T14:11:32.489Z,5.08
2023-11-25T14:12:36.665Z,5.09
2023-11-25T14:13:40.966Z,5.09
2023-11-25T14:14:45.140Z,5.11
2023-11-25T14:15:49.386Z,5.12
2023-11-25T14:16:53.712Z,5.13
2023-11-25T14:17:57.870Z,5.14
2023-11-25T14:19:02.076Z,5.15
2023-11-25T14:20:06.347Z,5.16
2023-11-25T14:21:10.516Z,5.14